Time;durP1;ratioP1;P1;durP2;ratioP2;P2;SDS_P1;SDS_P2;PMS_P1;PMS_P2;Temp;Humidity;BMP_temperature;BMP_pressure;BME280_temperature;BME280_humidity;BME280_pressure;Samples;Min_cycle;Max_cycle;Signal;HPM_P1;HPM_P2
2023/06/24 00:01:18;;;;;;;9.43;7.70;;;;;;;18.60;100.00;102248.97;5014461;28;20088;-83
2023/06/24 00:03:48;;;;;;;11.10;8.68;;;;;;;18.54;100.00;102241.69;5014403;28;20586;-84
2023/06/24 00:06:18;;;;;;;10.05;8.50;;;;;;;18.48;100.00;102232.47;4998023;28;20037;-84
2023/06/24 00:08:44;;;;;;;10.83;8.03;;;;;;;18.48;100.00;102239.88;5014074;28;20044;-84
2023/06/24 00:11:10;;;;;;;16.35;8.82;;;;;;;18.44;100.00;102233.19;5013799;28;20040;-84
2023/06/24 00:13:38;;;;;;;10.02;7.80;;;;;;;18.45;100.00;102243.94;5013957;28;20124;-84
2023/06/24 00:16:06;;;;;;;11.65;8.10;;;;;;;18.46;100.00;102242.03;5013918;28;20034;-84
2023/06/24 00:18:32;;;;;;;12.43;7.93;;;;;;;18.43;100.00;102250.75;5014008;28;20129;-84
2023/06/24 00:20:57;;;;;;;9.95;7.78;;;;;;;18.39;100.00;102248.47;5014010;28;20120;-83
2023/06/24 00:23:24;;;;;;;10.73;8.10;;;;;;;18.38;100.00;102254.19;5013689;28;20034;-83
2023/06/24 00:25:51;;;;;;;11.18;8.50;;;;;;;18.35;100.00;102251.91;5013855;28;20022;-84
2023/06/24 00:28:16;;;;;;;12.00;8.55;;;;;;;18.33;100.00;102251.31;4997351;28;20504;-83
2023/06/24 00:30:42;;;;;;;13.40;8.73;;;;;;;18.28;100.00;102256.66;5013661;28;20037;-84
2023/06/24 00:33:10;;;;;;;13.10;8.90;;;;;;;18.26;100.00;102256.88;5015223;28;20022;-84
2023/06/24 00:35:37;;;;;;;13.05;9.23;;;;;;;18.20;100.00;102255.94;4998280;28;20044;-84
2023/06/24 00:38:03;;;;;;;16.80;9.32;;;;;;;18.15;100.00;102261.25;5014965;28;20049;-84
2023/06/24 00:40:30;;;;;;;14.05;9.18;;;;;;;18.10;100.00;102255.66;5014746;28;20045;-88
2023/06/24 00:43:01;;;;;;;14.20;9.50;;;;;;;18.08;100.00;102255.03;5013805;28;20038;-84
2023/06/24 00:45:28;;;;;;;14.85;9.57;;;;;;;18.05;100.00;102255.50;5013047;28;20081;-84
2023/06/24 00:47:55;;;;;;;13.30;9.30;;;;;;;18.06;100.00;102257.16;5013191;28;20034;-84
2023/06/24 00:50:24;;;;;;;16.55;9.05;;;;;;;18.03;100.00;102260.38;4997869;28;20026;-84
2023/06/24 00:52:49;;;;;;;12.45;9.75;;;;;;;18.01;100.00;102265.25;5013338;28;20033;-84
2023/06/24 00:55:16;;;;;;;12.40;8.93;;;;;;;17.95;100.00;102269.78;5013504;28;20040;-84
2023/06/24 00:57:44;;;;;;;14.25;9.10;;;;;;;17.97;100.00;102273.13;5013293;28;20029;-84
2023/06/24 01:00:15;;;;;;;12.70;9.03;;;;;;;17.90;100.00;102261.38;5012930;28;20030;-84
2023/06/24 01:02:42;;;;;;;12.38;8.57;;;;;;;17.91;100.00;102270.44;5014765;28;20492;-84
2023/06/24 01:05:10;;;;;;;12.10;8.73;;;;;;;17.85;100.00;102251.06;5013139;28;20037;-84
2023/06/24 01:07:38;;;;;;;13.40;9.48;;;;;;;17.83;100.00;102253.22;5012982;28;20038;-84
2023/06/24 01:10:08;;;;;;;13.23;8.65;;;;;;;17.82;100.00;102254.28;5012887;28;20068;-84
2023/06/24 01:12:34;;;;;;;11.50;9.00;;;;;;;17.79;100.00;102249.25;5013419;28;20029;-84
2023/06/24 01:15:01;;;;;;;11.07;9.02;;;;;;;17.78;100.00;102249.47;5012947;28;20038;-84
2023/06/24 01:17:35;;;;;;;12.32;8.85;;;;;;;17.75;100.00;102253.50;5014162;28;20060;-83
2023/06/24 01:20:22;;;;;;;13.20;8.95;;;;;;;17.75;100.00;102252.69;5012797;28;20061;-84
2023/06/24 01:23:22;;;;;;;12.70;8.82;;;;;;;17.74;100.00;102251.00;5012815;28;20474;-84
2023/06/24 01:26:15;;;;;;;12.20;8.73;;;;;;;17.71;100.00;102250.38;5012819;28;20033;-84
2023/06/24 01:29:22;;;;;;;9.40;8.13;;;;;;;17.67;100.00;102246.44;5012398;28;20022;-83
2023/06/24 01:32:05;;;;;;;11.27;8.30;;;;;;;17.60;100.00;102242.91;4950061;28;20037;-84
2023/06/24 01:34:33;;;;;;;9.45;8.05;;;;;;;17.57;100.00;102235.16;5012657;28;20034;-84
2023/06/24 01:37:14;;;;;;;11.05;8.65;;;;;;;17.52;100.00;102243.22;5012742;28;20149;-84
2023/06/24 01:39:47;;;;;;;10.67;7.83;;;;;;;17.47;100.00;102246.66;5012482;28;20041;-85
2023/06/24 01:42:15;;;;;;;12.07;8.40;;;;;;;17.46;100.00;102238.63;5013341;28;20025;-84
2023/06/24 01:44:45;;;;;;;12.73;8.07;;;;;;;17.40;100.00;102242.31;5013441;28;20057;-84
2023/06/24 01:47:15;;;;;;;11.55;8.57;;;;;;;17.33;100.00;102237.72;5012451;28;20033;-84
2023/06/24 01:49:43;;;;;;;10.07;8.13;;;;;;;17.29;100.00;102244.72;4996152;28;20050;-84
2023/06/24 01:52:12;;;;;;;13.37;8.30;;;;;;;17.27;100.00;102249.59;5012158;28;20026;-84
2023/06/24 01:54:40;;;;;;;11.52;8.15;;;;;;;17.24;100.00;102236.31;4996424;28;20057;-84
2023/06/24 01:57:08;;;;;;;10.75;8.32;;;;;;;17.24;100.00;102239.06;5012486;28;20036;-84
2023/06/24 01:59:36;;;;;;;9.13;7.90;;;;;;;17.22;100.00;102238.47;5012420;28;20394;-84
2023/06/24 02:02:03;;;;;;;13.43;8.60;;;;;;;17.13;100.00;102240.66;5013570;28;20057;-84
2023/06/24 02:04:31;;;;;;;13.33;8.43;;;;;;;17.11;100.00;102234.56;5012002;28;20057;-84
2023/06/24 02:07:01;;;;;;;9.55;8.07;;;;;;;17.08;100.00;102239.66;5012260;28;20026;-84
2023/06/24 02:09:30;;;;;;;10.80;8.43;;;;;;;17.04;100.00;102231.06;5013173;28;20370;-84
2023/06/24 02:11:57;;;;;;;11.15;8.32;;;;;;;17.01;100.00;102228.75;5014635;28;20112;-84
2023/06/24 02:14:22;;;;;;;13.50;8.25;;;;;;;16.97;100.00;102231.09;5016346;28;20044;-84
2023/06/24 02:16:50;;;;;;;13.30;8.63;;;;;;;16.94;100.00;102222.50;5016178;28;20116;-84
2023/06/24 02:19:17;;;;;;;14.95;8.85;;;;;;;16.87;100.00;102225.28;5017584;28;20481;-84
2023/06/24 02:21:44;;;;;;;12.20;9.13;;;;;;;16.82;100.00;102231.41;5016544;28;20041;-84
2023/06/24 02:24:11;;;;;;;11.57;9.07;;;;;;;16.78;100.00;102229.34;5017480;28;20064;-84
2023/06/24 02:26:40;;;;;;;16.50;9.57;;;;;;;16.71;100.00;102232.16;5017438;28;20030;-84
2023/06/24 02:29:09;;;;;;;11.52;9.30;;;;;;;16.68;100.00;102238.03;5016157;28;20482;-84
2023/06/24 02:31:35;;;;;;;10.93;9.30;;;;;;;16.60;100.00;102228.22;5017114;28;20061;-84
2023/06/24 02:34:00;;;;;;;11.47;8.70;;;;;;;16.54;100.00;102234.56;5017220;28;20064;-84
2023/06/24 02:36:26;;;;;;;12.83;8.80;;;;;;;16.51;100.00;102236.94;4999477;28;20064;-84
2023/06/24 02:38:51;;;;;;;13.07;9.40;;;;;;;16.48;100.00;102239.03;4999603;28;20592;-84
2023/06/24 02:41:17;;;;;;;11.00;8.40;;;;;;;16.44;100.00;102236.97;5015362;28;20473;-84
2023/06/24 02:43:42;;;;;;;11.07;8.30;;;;;;;16.34;100.00;102233.88;5015721;28;20065;-84
2023/06/24 02:46:10;;;;;;;10.18;7.75;;;;;;;16.28;100.00;102228.22;5015775;28;20041;-85
2023/06/24 02:48:37;;;;;;;11.30;8.80;;;;;;;16.22;100.00;102229.09;4999387;28;20041;-84
2023/06/24 02:51:06;;;;;;;12.40;8.70;;;;;;;16.24;100.00;102226.13;5015751;28;20022;-85
2023/06/24 02:53:32;;;;;;;14.20;8.85;;;;;;;16.19;100.00;102232.25;5015573;28;20100;-84
2023/06/24 02:55:58;;;;;;;12.07;9.00;;;;;;;16.15;100.00;102233.78;5015804;28;20030;-84
2023/06/24 02:58:27;;;;;;;15.53;8.90;;;;;;;16.17;100.00;102241.78;4999250;28;20034;-84
2023/06/24 03:00:53;;;;;;;11.93;8.65;;;;;;;16.15;100.00;102244.72;5015540;28;20033;-84
2023/06/24 03:03:19;;;;;;;12.57;8.75;;;;;;;16.10;100.00;102247.28;5015714;28;20136;-85
2023/06/24 03:05:48;;;;;;;12.02;8.90;;;;;;;16.08;100.00;102254.88;5015749;28;20072;-84
2023/06/24 03:08:15;;;;;;;13.23;9.60;;;;;;;16.03;100.00;102262.88;5015225;28;20038;-84
2023/06/24 03:10:40;;;;;;;14.55;10.55;;;;;;;16.01;100.00;102260.38;4998570;28;20393;-88
2023/06/24 03:13:06;;;;;;;12.87;9.33;;;;;;;15.98;100.00;102262.72;4982448;28;20025;-84
2023/06/24 03:15:31;;;;;;;12.05;8.90;;;;;;;15.94;100.00;102259.56;5014969;28;20041;-84
2023/06/24 03:17:59;;;;;;;10.93;9.30;;;;;;;15.90;100.00;102250.94;4998737;28;20037;-84
2023/06/24 03:20:24;;;;;;;13.88;10.15;;;;;;;15.87;100.00;102254.13;5014969;28;20026;-84
2023/06/24 03:22:52;;;;;;;13.80;9.87;;;;;;;15.85;100.00;102258.13;5013762;28;20033;-84
2023/06/24 03:25:17;;;;;;;12.90;9.88;;;;;;;15.78;100.00;102253.53;5016050;28;20389;-84
2023/06/24 03:27:42;;;;;;;16.33;10.17;;;;;;;15.77;100.00;102251.81;5014783;28;20040;-83
2023/06/24 03:30:14;;;;;;;14.30;11.10;;;;;;;15.77;100.00;102250.97;5015125;28;20157;-84
2023/06/24 03:32:40;;;;;;;14.20;11.02;;;;;;;15.76;100.00;102249.28;5014940;28;20030;-84
2023/06/24 03:35:07;;;;;;;16.20;10.60;;;;;;;15.77;100.00;102249.06;5014822;28;20048;-84
2023/06/24 03:37:32;;;;;;;15.05;11.30;;;;;;;15.69;100.00;102245.72;4998711;28;20045;-84
2023/06/24 03:40:01;;;;;;;15.47;10.70;;;;;;;15.64;100.00;102240.06;5014730;28;20373;-84
2023/06/24 03:42:28;;;;;;;14.32;10.77;;;;;;;15.63;100.00;102247.41;5013942;28;20478;-84
2023/06/24 03:44:53;;;;;;;13.15;10.02;;;;;;;15.64;100.00;102245.53;5014275;28;20541;-84
2023/06/24 03:47:19;;;;;;;16.43;11.10;;;;;;;15.60;100.00;102245.97;4982170;28;20125;-84
2023/06/24 03:49:44;;;;;;;15.70;10.97;;;;;;;15.63;100.00;102250.16;5014649;28;20033;-84
2023/06/24 03:52:10;;;;;;;15.32;11.18;;;;;;;15.63;100.00;102246.59;4998179;28;20164;-84
2023/06/24 03:54:35;;;;;;;15.40;11.17;;;;;;;15.63;100.00;102255.63;5014491;28;20125;-84
2023/06/24 03:57:01;;;;;;;15.13;11.50;;;;;;;15.60;100.00;102250.59;5014539;28;20073;-84
2023/06/24 03:59:26;;;;;;;16.77;11.53;;;;;;;15.63;100.00;102261.09;5015725;28;20108;-84
2023/06/24 04:01:52;;;;;;;14.97;11.37;;;;;;;15.65;100.00;102261.75;5014460;28;20284;-84
2023/06/24 04:04:17;;;;;;;19.40;11.60;;;;;;;15.66;100.00;102268.03;5014688;28;20482;-84
2023/06/24 04:06:45;;;;;;;17.47;11.50;;;;;;;15.64;100.00;102264.69;5014482;28;20030;-84
2023/06/24 04:09:11;;;;;;;16.80;11.77;;;;;;;15.61;100.00;102264.06;4997892;28;20474;-84
2023/06/24 04:11:36;;;;;;;16.57;11.30;;;;;;;15.61;100.00;102261.31;4997381;28;20040;-83
2023/06/24 04:14:02;;;;;;;15.77;11.43;;;;;;;15.64;100.00;102268.25;4997577;28;20289;-83
2023/06/24 04:16:27;;;;;;;15.20;11.00;;;;;;;15.67;100.00;102265.09;5014208;28;20113;-83
2023/06/24 04:18:53;;;;;;;16.47;11.23;;;;;;;15.72;100.00;102264.44;4981427;28;20129;-84
2023/06/24 04:21:18;;;;;;;15.07;10.70;;;;;;;15.70;100.00;102259.19;5013996;28;20030;-84
2023/06/24 04:23:44;;;;;;;14.10;11.23;;;;;;;15.72;100.00;102262.56;5015267;28;20025;-84
2023/06/24 04:26:10;;;;;;;14.70;11.40;;;;;;;15.75;100.00;102264.00;5013902;28;20030;-84
2023/06/24 04:28:40;;;;;;;15.63;11.00;;;;;;;15.76;100.00;102271.19;4997860;28;20099;-84
2023/06/24 04:31:06;;;;;;;13.48;10.52;;;;;;;15.76;100.00;102263.78;5015491;28;20060;-84
2023/06/24 04:33:32;;;;;;;15.33;10.80;;;;;;;15.77;100.00;102272.88;5013309;28;20025;-84
2023/06/24 04:35:58;;;;;;;14.80;10.73;;;;;;;15.78;100.00;102266.34;5013652;28;20033;-84
2023/06/24 04:38:27;;;;;;;16.17;10.93;;;;;;;15.79;100.00;102259.81;5013913;28;20492;-84
2023/06/24 04:40:52;;;;;;;14.25;10.45;;;;;;;15.80;100.00;102261.50;5013556;28;20033;-84
2023/06/24 04:43:18;;;;;;;17.70;11.10;;;;;;;15.82;100.00;102266.78;5014778;28;20021;-84
2023/06/24 04:45:44;;;;;;;16.38;10.90;;;;;;;15.83;100.00;102261.06;4997181;28;20046;-84
2023/06/24 04:48:09;;;;;;;13.47;9.53;;;;;;;15.89;100.00;102268.41;5013490;28;20108;-84
2023/06/24 04:50:34;;;;;;;16.73;11.03;;;;;;;15.98;100.00;102263.53;4997061;28;20199;-85
2023/06/24 04:53:01;;;;;;;18.47;12.07;;;;;;;16.04;100.00;102265.41;4997018;28;20036;-84
2023/06/24 04:55:29;;;;;;;17.47;12.43;;;;;;;16.08;100.00;102261.19;4997221;28;20280;-85
2023/06/24 04:57:55;;;;;;;17.45;12.48;;;;;;;16.16;100.00;102265.56;5013576;28;20465;-84
2023/06/24 05:00:22;;;;;;;16.10;11.73;;;;;;;16.25;100.00;102269.72;5014558;28;20076;-84
2023/06/24 05:02:48;;;;;;;21.42;13.55;;;;;;;16.30;100.00;102266.34;5014834;28;20040;-85
2023/06/24 05:05:14;;;;;;;19.47;13.33;;;;;;;16.34;100.00;102264.00;5013339;28;20030;-85
2023/06/24 05:07:39;;;;;;;21.13;12.80;;;;;;;16.35;100.00;102262.94;5013071;28;20304;-86
2023/06/24 05:10:05;;;;;;;17.33;12.73;;;;;;;16.38;100.00;102271.56;5013155;28;20473;-85
2023/06/24 05:12:31;;;;;;;18.02;13.35;;;;;;;16.44;100.00;102267.94;5012453;28;20041;-85
2023/06/24 05:14:56;;;;;;;18.57;14.13;;;;;;;16.43;100.00;102263.53;5014207;28;20087;-86
2023/06/24 05:17:21;;;;;;;20.27;13.43;;;;;;;16.46;100.00;102267.69;5013032;28;20034;-89
2023/06/24 05:19:47;;;;;;;17.40;12.63;;;;;;;16.48;100.00;102271.91;4996791;28;20292;-84
2023/06/24 05:22:12;;;;;;;17.97;13.20;;;;;;;16.55;100.00;102265.53;5012894;28;20474;-85
2023/06/24 05:24:38;;;;;;;17.40;13.27;;;;;;;16.63;100.00;102268.03;5013053;28;20466;-82
2023/06/24 05:27:07;;;;;;;17.20;12.90;;;;;;;16.65;100.00;102266.75;5012867;28;20437;-82
2023/06/24 05:29:34;;;;;;;18.83;12.93;;;;;;;16.66;100.00;102260.19;5012488;28;20382;-82
2023/06/24 05:32:03;;;;;;;18.17;12.68;;;;;;;16.70;100.00;102270.72;5012513;28;20382;-82
2023/06/24 05:34:30;;;;;;;14.80;12.45;;;;;;;16.72;100.00;102265.88;4996435;28;20057;-82
2023/06/24 05:36:55;;;;;;;16.33;12.40;;;;;;;16.77;100.00;102274.25;4980096;28;20458;-82
2023/06/24 05:39:21;;;;;;;19.10;12.37;;;;;;;16.83;100.00;102276.94;4996409;28;20064;-83
2023/06/24 05:41:48;;;;;;;16.25;11.52;;;;;;;16.92;100.00;102277.53;4979924;28;20026;-82
2023/06/24 05:44:14;;;;;;;16.13;11.87;;;;;;;16.94;99.99;102269.94;5012515;28;20137;-82
2023/06/24 05:46:39;;;;;;;16.98;11.95;;;;;;;16.98;99.57;102271.16;4995535;28;20451;-86
2023/06/24 05:49:08;;;;;;;18.63;12.30;;;;;;;17.01;99.12;102272.63;4996114;28;20371;-87
2023/06/24 05:51:33;;;;;;;16.25;11.98;;;;;;;17.04;98.56;102277.66;5005180;28;20144;-85
2023/06/24 05:54:01;;;;;;;15.80;11.33;;;;;;;17.09;98.27;102286.03;5013062;28;20510;-85
2023/06/24 05:56:26;;;;;;;14.50;11.27;;;;;;;17.11;98.03;102278.44;5014022;28;20034;-85
2023/06/24 05:58:52;;;;;;;15.60;11.27;;;;;;;17.16;97.65;102280.50;5012165;28;20450;-85
2023/06/24 06:01:17;;;;;;;16.07;11.43;;;;;;;17.23;97.39;102277.69;5012246;28;20053;-85
2023/06/24 06:03:45;;;;;;;14.80;10.63;;;;;;;17.28;95.31;102277.88;4996262;28;20034;-85
2023/06/24 06:06:11;;;;;;;15.18;10.02;;;;;;;17.32;94.11;102279.94;5012243;28;20054;-85
2023/06/24 06:08:36;;;;;;;13.90;9.80;;;;;;;17.39;95.14;102268.03;4995869;28;20068;-86
2023/06/24 06:11:02;;;;;;;15.23;9.68;;;;;;;17.43;93.48;102277.50;4995666;28;20036;-85
2023/06/24 06:13:28;;;;;;;15.70;10.27;;;;;;;17.48;93.84;102278.50;5012312;28;20397;-85
2023/06/24 06:15:54;;;;;;;15.82;9.98;;;;;;;17.53;93.09;102270.41;5013513;28;20478;-85
2023/06/24 06:18:19;;;;;;;16.33;10.07;;;;;;;17.59;93.36;102278.81;5012266;28;20045;-85
2023/06/24 06:20:45;;;;;;;14.73;9.63;;;;;;;17.65;92.71;102273.25;5012125;28;20057;-85
2023/06/24 06:23:10;;;;;;;14.57;9.57;;;;;;;17.74;92.99;102281.19;5012253;28;20064;-85
2023/06/24 06:25:37;;;;;;;15.07;9.60;;;;;;;17.79;91.88;102273.09;4995954;28;20375;-85
2023/06/24 06:28:03;;;;;;;13.75;10.35;;;;;;;17.85;91.59;102285.94;4995968;28;20045;-85
2023/06/24 06:30:29;;;;;;;13.40;9.33;;;;;;;17.93;91.24;102279.31;5012012;28;20026;-85
2023/06/24 06:32:54;;;;;;;16.58;9.00;;;;;;;17.95;89.68;102283.50;5012149;28;20037;-85
2023/06/24 06:35:20;;;;;;;10.57;7.57;;;;;;;18.02;85.79;102277.91;4995870;28;20117;-85
2023/06/24 06:37:47;;;;;;;10.40;7.40;;;;;;;18.09;85.59;102284.16;5013104;28;20497;-85
2023/06/24 06:40:13;;;;;;;11.18;7.00;;;;;;;18.19;85.06;102294.63;4980293;28;20045;-85
2023/06/24 06:42:38;;;;;;;10.87;7.43;;;;;;;18.24;85.33;102289.25;4979038;28;20038;-84
2023/06/24 06:45:04;;;;;;;10.15;7.47;;;;;;;18.29;84.00;102296.78;5013032;28;20133;-85
2023/06/24 06:47:32;;;;;;;10.03;8.00;;;;;;;18.31;84.78;102292.75;5011987;28;20371;-85
2023/06/24 06:49:57;;;;;;;11.68;7.20;;;;;;;18.38;84.11;102292.66;5011849;28;20091;-85
2023/06/24 06:52:23;;;;;;;10.30;7.20;;;;;;;18.40;83.52;102299.59;5011780;28;20477;-85
2023/06/24 06:54:48;;;;;;;9.27;6.93;;;;;;;18.46;83.66;102305.25;5011945;28;20482;-85
2023/06/24 06:57:16;;;;;;;12.60;7.60;;;;;;;18.51;83.21;102295.22;4997306;28;20038;-86
2023/06/24 06:59:42;;;;;;;13.35;6.72;;;;;;;18.59;84.87;102299.56;5015322;28;20050;-86
2023/06/24 07:02:07;;;;;;;11.17;7.33;;;;;;;18.64;84.96;102299.69;4998972;28;20058;-86
2023/06/24 07:04:33;;;;;;;11.67;7.40;;;;;;;18.68;82.97;102303.63;4998937;28;20038;-85
2023/06/24 07:06:58;;;;;;;9.03;5.70;;;;;;;18.73;83.80;102312.03;5015055;28;20511;-85
2023/06/24 07:09:24;;;;;;;9.93;6.47;;;;;;;18.82;82.63;102314.44;5015535;28;20079;-85
2023/06/24 07:11:49;;;;;;;7.37;6.20;;;;;;;18.87;82.09;102311.84;5014498;28;20038;-85
2023/06/24 07:14:15;;;;;;;9.10;6.28;;;;;;;18.90;79.94;102317.72;5015439;28;20363;-85
2023/06/24 07:16:40;;;;;;;8.10;5.40;;;;;;;18.95;80.63;102314.25;5015016;28;20064;-85
2023/06/24 07:19:06;;;;;;;10.87;5.73;;;;;;;19.02;78.11;102320.47;5016205;28;20470;-85
2023/06/24 07:21:31;;;;;;;5.43;4.53;;;;;;;19.09;77.18;102312.13;5016219;28;20034;-85
2023/06/24 07:23:59;;;;;;;9.07;5.65;;;;;;;19.20;79.03;102310.47;5015305;28;20045;-85
2023/06/24 07:26:24;;;;;;;9.13;4.97;;;;;;;19.28;79.15;102310.94;5015092;28;20083;-85
2023/06/24 07:28:50;;;;;;;8.18;5.15;;;;;;;19.34;74.59;102306.41;5015120;28;20124;-85
2023/06/24 07:31:15;;;;;;;6.60;4.00;;;;;;;19.40;72.58;102310.09;5014571;28;20038;-85
2023/06/24 07:33:43;;;;;;;8.33;4.90;;;;;;;19.44;72.93;102303.91;4998530;28;20041;-85
2023/06/24 07:36:13;;;;;;;5.00;3.80;;;;;;;19.46;71.63;102304.50;5014455;28;20091;-85
2023/06/24 07:38:38;;;;;;;5.65;3.80;;;;;;;19.55;70.89;102312.41;5014900;28;20030;-85
2023/06/24 07:41:04;;;;;;;6.10;4.20;;;;;;;19.60;69.81;102301.47;5013906;28;20378;-86
2023/06/24 07:43:32;;;;;;;6.55;4.00;;;;;;;19.66;70.21;102305.19;5014806;28;20029;-85
2023/06/24 07:46:00;;;;;;;6.47;4.10;;;;;;;19.72;69.32;102306.97;5014480;28;20054;-85
2023/06/24 07:48:25;;;;;;;10.38;5.13;;;;;;;19.78;71.10;102306.88;5014658;28;20052;-85
2023/06/24 07:50:51;;;;;;;8.05;5.38;;;;;;;19.82;70.98;102304.47;5014366;28;20465;-85
2023/06/24 07:53:19;;;;;;;6.90;4.77;;;;;;;19.85;69.24;102308.66;4981965;28;20130;-86
2023/06/24 07:55:45;;;;;;;6.28;4.38;;;;;;;19.92;68.42;102312.97;5014497;28;20041;-85
2023/06/24 07:58:11;;;;;;;7.13;4.20;;;;;;;20.01;68.90;102309.84;4997931;28;20033;-86
2023/06/24 08:00:42;;;;;;;9.88;4.70;;;;;;;20.05;67.32;102309.09;4998068;28;20049;-85
2023/06/24 08:03:08;;;;;;;7.47;4.47;;;;;;;20.14;67.75;102312.31;5014258;28;20405;-86
2023/06/24 08:05:33;;;;;;;9.77;4.57;;;;;;;20.20;65.72;102302.25;4997828;28;20038;-85
2023/06/24 08:08:02;;;;;;;5.73;3.90;;;;;;;20.30;65.13;102310.72;5014974;28;20026;-86
2023/06/24 08:10:30;;;;;;;5.07;3.70;;;;;;;20.34;63.30;102303.59;4997677;28;20033;-86
2023/06/24 08:12:55;;;;;;;4.28;3.15;;;;;;;20.37;63.42;102308.63;4997647;28;20030;-85
2023/06/24 08:15:26;;;;;;;4.20;3.10;;;;;;;20.50;62.83;102302.81;5013809;28;20026;-85
2023/06/24 08:17:52;;;;;;;4.53;3.20;;;;;;;20.59;61.39;102305.16;4997984;28;20045;-85
2023/06/24 08:20:17;;;;;;;5.60;2.88;;;;;;;20.68;63.41;102301.81;5013754;28;20385;-85
2023/06/24 08:22:43;;;;;;;6.50;3.40;;;;;;;20.72;62.75;102302.13;4997642;28;20044;-85
2023/06/24 08:25:08;;;;;;;6.03;3.40;;;;;;;20.79;63.72;102294.53;4997206;28;20042;-85
2023/06/24 08:27:34;;;;;;;5.57;2.90;;;;;;;20.87;62.41;102293.28;4997738;28;20048;-85
2023/06/24 08:29:59;;;;;;;2.97;2.58;;;;;;;20.97;60.45;102290.69;5013603;28;20026;-85
2023/06/24 08:32:25;;;;;;;3.90;2.20;;;;;;;21.07;61.49;102289.19;5013272;28;20371;-86
2023/06/24 08:34:53;;;;;;;4.30;2.30;;;;;;;21.14;57.12;102292.59;5014987;28;20045;-86
2023/06/24 08:37:18;;;;;;;3.28;2.47;;;;;;;21.17;56.93;102290.19;5013811;28;20084;-86
2023/06/24 08:39:44;;;;;;;5.10;2.53;;;;;;;21.23;57.61;102298.53;5013910;28;20398;-85
2023/06/24 08:42:12;;;;;;;5.90;2.70;;;;;;;21.32;58.95;102289.59;5012894;28;20544;-85
2023/06/24 08:44:37;;;;;;;3.78;2.55;;;;;;;21.42;57.99;102280.63;5013120;28;20081;-86
2023/06/24 08:47:11;;;;;;;3.13;1.83;;;;;;;21.53;56.18;102290.75;4996740;28;20132;-86
2023/06/24 08:49:48;;;;;;;4.20;2.80;;;;;;;21.61;55.66;102283.94;5013675;28;20045;-85
2023/06/24 08:52:18;;;;;;;3.10;2.13;;;;;;;21.68;53.22;102289.31;5013243;28;20033;-85
2023/06/24 08:54:52;;;;;;;3.20;2.40;;;;;;;21.76;54.15;102291.63;5013078;28;20061;-85
2023/06/24 08:57:18;;;;;;;3.67;1.90;;;;;;;21.83;54.85;102285.91;5014345;28;20030;-85
2023/06/24 08:59:44;;;;;;;6.13;2.70;;;;;;;21.88;53.66;102286.81;5013380;28;20058;-85
2023/06/24 09:02:13;;;;;;;3.63;2.40;;;;;;;21.92;51.99;102283.53;4996584;28;20124;-86
2023/06/24 09:04:40;;;;;;;3.10;2.17;;;;;;;21.98;53.98;102285.25;4981055;28;20060;-85
2023/06/24 09:07:05;;;;;;;3.42;2.53;;;;;;;22.10;54.03;102290.66;4996626;28;20034;-85
2023/06/24 09:09:31;;;;;;;5.17;2.87;;;;;;;22.18;53.64;102285.50;4980202;28;20124;-85
2023/06/24 09:11:59;;;;;;;4.78;2.42;;;;;;;22.17;52.32;102283.81;5012393;28;20397;-86
2023/06/24 09:14:30;;;;;;;3.13;2.30;;;;;;;22.30;53.92;102285.34;5012686;28;20026;-86
2023/06/24 09:16:58;;;;;;;5.67;2.50;;;;;;;22.46;55.01;102280.84;5013167;28;20034;-86
2023/06/24 09:19:28;;;;;;;3.72;2.95;;;;;;;22.58;54.90;102283.44;4996297;28;20050;-85
2023/06/24 09:21:53;;;;;;;4.55;3.00;;;;;;;22.59;52.79;102277.66;4981067;28;20509;-84
2023/06/24 09:24:28;;;;;;;4.23;2.77;;;;;;;22.64;52.12;102270.50;5012601;28;20033;-85
2023/06/24 09:26:56;;;;;;;7.25;3.08;;;;;;;22.75;53.27;102269.47;5013144;28;20038;-85
2023/06/24 09:29:26;;;;;;;3.08;2.60;;;;;;;22.78;50.62;102266.22;5014201;28;20030;-84
2023/06/24 09:31:56;;;;;;;4.20;2.33;;;;;;;22.83;49.08;102257.94;5012597;28;20037;-85
2023/06/24 09:34:22;;;;;;;6.10;2.40;;;;;;;22.91;49.57;102251.94;5012960;28;20120;-84
2023/06/24 09:36:53;;;;;;;3.23;2.67;;;;;;;23.02;51.53;102249.25;5012789;28;20045;-85
2023/06/24 09:39:18;;;;;;;5.00;2.88;;;;;;;23.10;51.24;102257.06;5012333;28;20048;-85
2023/06/24 09:41:50;;;;;;;4.50;2.83;;;;;;;23.18;50.50;102256.59;5011873;28;20030;-85
2023/06/24 09:44:19;;;;;;;4.07;2.60;;;;;;;23.26;49.94;102244.97;5012486;28;20056;-85
2023/06/24 09:46:45;;;;;;;3.33;2.67;;;;;;;23.38;49.34;102241.19;5013992;28;20056;-85
2023/06/24 09:49:13;;;;;;;6.15;2.90;;;;;;;23.44;49.08;102242.88;4996192;28;20045;-85
2023/06/24 09:51:44;;;;;;;5.63;2.38;;;;;;;23.48;48.41;102235.69;5013665;28;20501;-85
2023/06/24 09:54:20;;;;;;;3.20;2.33;;;;;;;23.54;47.48;102242.94;5022539;28;20103;-86
2023/06/24 09:56:49;;;;;;;2.65;2.30;;;;;;;23.69;44.28;102241.34;5032248;28;20130;-86
2023/06/24 09:59:17;;;;;;;2.17;1.95;;;;;;;23.81;42.19;102234.47;5033249;28;20077;-85
2023/06/24 10:01:44;;;;;;;4.35;2.33;;;;;;;23.96;46.50;102242.03;5032013;28;20155;-86
2023/06/24 10:04:18;;;;;;;4.90;2.20;;;;;;;24.06;45.15;102245.94;5032005;28;20389;-86
2023/06/24 10:06:45;;;;;;;2.67;1.90;;;;;;;24.03;42.17;102238.97;5033437;28;20036;-86
2023/06/24 10:09:13;;;;;;;3.20;2.40;;;;;;;24.03;43.58;102240.94;5031898;28;20029;-86
2023/06/24 10:11:38;;;;;;;5.05;2.53;;;;;;;24.12;45.36;102240.13;5031408;28;20113;-85
2023/06/24 10:14:12;;;;;;;3.63;2.65;;;;;;;24.28;43.51;102246.53;5031706;28;20108;-85
2023/06/24 10:16:37;;;;;;;4.20;2.60;;;;;;;24.44;43.40;102246.56;5016511;28;20041;-86
2023/06/24 10:19:03;;;;;;;2.60;2.40;;;;;;;24.58;42.58;102242.16;5015977;28;20091;-86
2023/06/24 10:21:51;;;;;;;3.20;2.60;;;;;;;24.74;45.27;102242.16;5032067;28;20041;-86
2023/06/24 10:24:51;;;;;;;5.13;2.80;;;;;;;24.83;44.19;102244.13;5031944;28;20084;-86
2023/06/24 10:27:26;;;;;;;3.38;2.80;;;;;;;25.00;44.38;102235.47;4990283;28;20044;-86
2023/06/24 10:29:56;;;;;;;3.70;3.00;;;;;;;25.17;45.10;102235.19;5015991;28;20041;-86
2023/06/24 10:32:27;;;;;;;6.07;2.80;;;;;;;25.39;44.47;102234.03;5033656;28;20035;-86
2023/06/24 10:35:01;;;;;;;4.57;2.90;;;;;;;25.61;44.44;102233.66;5035769;28;20032;-86
2023/06/24 10:37:31;;;;;;;3.93;2.90;;;;;;;25.80;42.12;102224.69;5036814;28;20029;-87
2023/06/24 10:40:01;;;;;;;3.22;2.92;;;;;;;25.65;42.34;102225.59;5035549;28;20049;-86
2023/06/24 10:42:42;;;;;;;3.75;3.08;;;;;;;25.82;43.39;102228.88;5034534;28;20063;-86
2023/06/24 10:45:11;;;;;;;3.33;3.03;;;;;;;26.04;43.47;102222.94;5018619;28;20049;-86
2023/06/24 10:47:48;;;;;;;5.95;2.85;;;;;;;26.35;43.89;102219.09;5035223;28;20034;-86
2023/06/24 10:50:19;;;;;;;3.73;2.63;;;;;;;26.67;42.49;102217.75;5036683;28;20029;-86
2023/06/24 10:52:50;;;;;;;3.90;2.70;;;;;;;26.84;41.20;102207.03;5035881;28;20025;-86
2023/06/24 10:55:22;;;;;;;3.00;2.70;;;;;;;27.01;40.91;102211.31;5035299;28;20381;-86
2023/06/24 10:57:47;;;;;;;4.40;3.20;;;;;;;27.16;41.17;102213.94;5019346;28;20061;-86
2023/06/24 11:00:16;;;;;;;4.43;2.97;;;;;;;27.29;40.93;102215.19;5018548;28;20473;-86
2023/06/24 11:02:46;;;;;;;3.92;3.05;;;;;;;27.27;41.27;102207.13;5035023;28;20026;-86
2023/06/24 11:05:14;;;;;;;3.38;3.08;;;;;;;27.34;40.11;102206.78;5034883;28;20053;-85
2023/06/24 11:07:40;;;;;;;3.33;2.72;;;;;;;27.66;40.75;102208.06;5035052;28;20033;-86
2023/06/24 11:10:12;;;;;;;4.37;2.73;;;;;;;27.89;40.75;102199.94;5035081;28;20088;-86
2023/06/24 11:12:39;;;;;;;3.28;2.85;;;;;;;28.15;39.71;102198.50;5034385;28;20484;-86
2023/06/24 11:15:07;;;;;;;4.60;3.00;;;;;;;28.34;39.17;102206.00;5034593;28;20041;-86
2023/06/24 11:17:34;;;;;;;4.28;2.90;;;;;;;28.56;37.21;102199.75;5036161;28;20462;-86